createdAt,value
2022-10-01T00:01:17.634Z,12.85
2022-10-01T00:03:45.506Z,10.38
2022-10-01T00:06:20.552Z,8.30
2022-10-01T00:11:23.274Z,7.57
2022-10-01T00:13:51.934Z,6.93
2022-10-01T00:16:24.451Z,4.65
2022-10-01T00:18:55.443Z,7.57
2022-10-01T00:21:25.232Z,7.45
2022-10-01T00:23:58.318Z,6.50
2022-10-01T00:26:28.379Z,8.27
2022-10-01T00:28:58.464Z,7.07
2022-10-01T00:31:26.596Z,6.50
2022-10-01T00:33:55.176Z,9.32
2022-10-01T00:36:22.894Z,9.52
2022-10-01T00:38:50.386Z,12.55
2022-10-01T00:41:18.802Z,8.50
2022-10-01T00:43:50.497Z,11.57
2022-10-01T00:46:31.521Z,10.02
2022-10-01T00:49:09.458Z,8.48
2022-10-01T00:51:42.685Z,8.23
2022-10-01T00:54:14.480Z,8.35
2022-10-01T00:56:43.589Z,8.65
2022-10-01T00:59:12.008Z,10.18
2022-10-01T01:01:39.568Z,9.30
2022-10-01T01:04:16.481Z,8.68
2022-10-01T01:06:57.691Z,8.90
2022-10-01T01:09:31.638Z,10.40
2022-10-01T01:12:02.587Z,6.82
2022-10-01T01:14:44.381Z,9.85
2022-10-01T01:17:15.447Z,10.80
2022-10-01T01:20:04.941Z,8.63
2022-10-01T01:22:34.750Z,7.55
2022-10-01T01:25:14.513Z,10.05
2022-10-01T01:27:48.646Z,7.72
2022-10-01T01:30:17.127Z,5.90
2022-10-01T01:32:46.816Z,8.18
2022-10-01T01:35:22.171Z,7.75
2022-10-01T01:37:57.361Z,8.55
2022-10-01T01:40:25.792Z,6.65
2022-10-01T01:42:54.518Z,9.32
2022-10-01T01:45:26.290Z,9.40
2022-10-01T01:47:56.102Z,11.38
2022-10-01T01:50:25.559Z,10.38
2022-10-01T01:52:56.327Z,9.82
2022-10-01T01:55:24.837Z,9.32
2022-10-01T01:57:53.255Z,11.82
2022-10-01T02:00:22.467Z,8.18
2022-10-01T02:02:53.047Z,6.62
2022-10-01T02:05:26.300Z,11.77
2022-10-01T02:08:24.226Z,11.82
2022-10-01T02:11:18.970Z,8.20
2022-10-01T02:14:03.269Z,7.77
2022-10-01T02:16:35.511Z,7.47
2022-10-01T02:19:33.476Z,13.00
2022-10-01T02:22:07.270Z,7.95
2022-10-01T02:24:57.812Z,16.55
2022-10-01T02:27:46.683Z,9.27
2022-10-01T02:30:15.367Z,7.75
2022-10-01T02:32:44.477Z,11.12
2022-10-01T02:35:15.327Z,13.23
2022-10-01T02:37:44.809Z,10.23
2022-10-01T02:40:15.955Z,9.82
2022-10-01T02:42:50.216Z,7.95
2022-10-01T02:45:22.805Z,9.60
2022-10-01T02:47:55.178Z,10.60
2022-10-01T02:50:24.623Z,10.10
2022-10-01T02:53:42.338Z,9.82
2022-10-01T02:56:10.500Z,9.85
2022-10-01T02:58:38.217Z,6.43
2022-10-01T03:01:06.219Z,9.02
2022-10-01T03:03:33.722Z,8.20
2022-10-01T03:06:01.455Z,8.95
2022-10-01T03:08:29.424Z,10.85
2022-10-01T03:10:56.870Z,8.60
2022-10-01T03:13:25.253Z,13.43
2022-10-01T03:15:52.866Z,10.18
2022-10-01T03:18:20.655Z,12.68
2022-10-01T03:20:48.371Z,11.10
2022-10-01T03:23:15.854Z,11.75
2022-10-01T03:25:43.248Z,11.45
2022-10-01T03:28:11.018Z,11.82
2022-10-01T03:30:38.901Z,15.10
2022-10-01T03:33:06.315Z,12.20
2022-10-01T03:35:34.027Z,7.60
2022-10-01T03:38:02.851Z,10.10
2022-10-01T03:40:33.219Z,17.60
2022-10-01T03:43:00.950Z,17.15
2022-10-01T03:45:28.444Z,10.35
2022-10-01T03:47:55.935Z,11.68
2022-10-01T03:50:23.678Z,11.90
2022-10-01T03:52:51.317Z,7.40
2022-10-01T03:55:19.350Z,8.05
2022-10-01T03:57:47.251Z,10.18
2022-10-01T04:00:14.718Z,7.97
2022-10-01T04:02:42.109Z,11.02
2022-10-01T04:05:09.900Z,9.13
2022-10-01T04:07:37.386Z,8.93
2022-10-01T04:10:05.166Z,6.95
2022-10-01T04:12:32.986Z,8.90
2022-10-01T04:15:00.468Z,10.95
2022-10-01T04:17:27.862Z,9.73
2022-10-01T04:19:57.742Z,7.37
2022-10-01T04:22:25.234Z,9.10
2022-10-01T04:24:53.809Z,8.07
2022-10-01T04:27:21.582Z,6.55
2022-10-01T04:29:48.954Z,9.48
2022-10-01T04:32:21.628Z,6.12
2022-10-01T04:34:52.782Z,9.35
2022-10-01T04:37:21.618Z,10.98
2022-10-01T04:39:49.544Z,7.15
2022-10-01T04:42:17.012Z,15.95
2022-10-01T04:44:44.450Z,6.60
2022-10-01T04:47:12.157Z,7.40
2022-10-01T04:49:39.643Z,7.60
2022-10-01T04:52:07.011Z,6.45
2022-10-01T04:54:34.739Z,6.50
2022-10-01T04:57:02.137Z,8.82
2022-10-01T04:59:29.588Z,7.70
2022-10-01T05:01:57.690Z,7.62
2022-10-01T05:04:25.159Z,11.32
2022-10-01T05:06:52.567Z,11.75
2022-10-01T05:09:20.200Z,8.95
2022-10-01T05:11:52.083Z,13.57
2022-10-01T05:14:21.275Z,8.25
2022-10-01T05:16:48.730Z,7.32
2022-10-01T05:19:16.258Z,12.77
2022-10-01T05:21:43.970Z,8.55
2022-10-01T05:24:11.406Z,7.47
2022-10-01T05:26:38.996Z,12.52
2022-10-01T05:29:06.796Z,24.02
2022-10-01T05:31:34.914Z,8.52
2022-10-01T05:34:02.710Z,8.68
2022-10-01T05:36:30.371Z,8.70
2022-10-01T05:38:57.827Z,8.30
2022-10-01T05:41:25.272Z,12.70
2022-10-01T05:43:53.008Z,12.43
2022-10-01T05:46:20.511Z,8.55
2022-10-01T05:48:51.404Z,11.98
2022-10-01T05:51:19.304Z,6.97
2022-10-01T05:53:50.461Z,9.93
2022-10-01T05:56:18.067Z,10.73
2022-10-01T05:58:46.798Z,9.88
2022-10-01T06:01:14.308Z,11.55
2022-10-01T06:03:42.867Z,18.73
2022-10-01T06:06:10.636Z,15.77
2022-10-01T06:08:38.205Z,7.75
2022-10-01T06:11:06.114Z,10.15
2022-10-01T06:13:35.654Z,8.30
2022-10-01T06:16:03.123Z,8.73
2022-10-01T06:18:30.854Z,11.05
2022-10-01T06:20:59.745Z,10.52
2022-10-01T06:23:27.699Z,9.57
2022-10-01T06:25:55.379Z,6.70
2022-10-01T06:28:22.888Z,6.90
2022-10-01T06:30:50.344Z,8.30
2022-10-01T06:33:18.628Z,9.63
2022-10-01T06:35:48.797Z,12.88
2022-10-01T06:38:17.799Z,13.25
2022-10-01T06:40:54.275Z,11.50
2022-10-01T06:43:22.694Z,11.85
2022-10-01T06:45:50.494Z,13.45
2022-10-01T06:48:20.022Z,8.85
2022-10-01T06:50:49.293Z,8.77
2022-10-01T06:53:18.281Z,10.68
2022-10-01T06:55:46.329Z,8.75
2022-10-01T06:58:16.491Z,9.45
2022-10-01T07:00:44.820Z,12.50
2022-10-01T07:03:15.051Z,10.93
2022-10-01T07:05:42.501Z,14.45
2022-10-01T07:08:10.185Z,13.23
2022-10-01T07:10:38.136Z,10.10
2022-10-01T07:13:10.220Z,12.57
2022-10-01T07:15:38.578Z,12.13
2022-10-01T07:18:08.682Z,16.40
2022-10-01T07:20:39.678Z,11.02
2022-10-01T07:23:12.398Z,12.75
2022-10-01T07:25:41.189Z,12.20
2022-10-01T07:28:16.659Z,10.32
2022-10-01T07:30:57.303Z,9.05
2022-10-01T07:33:25.332Z,9.77
2022-10-01T07:35:52.833Z,7.78
2022-10-01T07:38:20.353Z,13.60
2022-10-01T07:40:52.682Z,13.20
2022-10-01T07:43:20.502Z,7.95
2022-10-01T07:45:49.998Z,8.65
2022-10-01T07:48:17.841Z,10.15
2022-10-01T07:50:45.777Z,13.02
2022-10-01T07:53:13.935Z,9.52
2022-10-01T07:55:41.490Z,11.07
2022-10-01T07:58:09.866Z,16.12
2022-10-01T08:00:38.411Z,14.38
2022-10-01T08:03:06.156Z,14.90
2022-10-01T08:05:35.826Z,11.30
2022-10-01T08:08:07.309Z,10.02
2022-10-01T08:10:36.846Z,10.23
2022-10-01T08:13:08.360Z,12.63
2022-10-01T08:15:36.323Z,13.88
2022-10-01T08:18:04.620Z,14.48
2022-10-01T08:20:32.303Z,10.35
2022-10-01T08:23:04.736Z,11.50
2022-10-01T08:25:32.494Z,11.98
2022-10-01T08:28:00.517Z,11.70
2022-10-01T08:30:29.027Z,14.73
2022-10-01T08:32:57.420Z,19.30
2022-10-01T08:35:26.008Z,22.13
2022-10-01T08:37:55.496Z,15.52
2022-10-01T08:40:23.904Z,14.02
2022-10-01T08:43:00.048Z,15.95
2022-10-01T08:45:34.760Z,15.05
2022-10-01T08:48:09.266Z,13.98
2022-10-01T08:50:44.787Z,15.77
2022-10-01T08:53:16.996Z,21.33
2022-10-01T08:55:54.786Z,19.58
2022-10-01T08:58:29.285Z,22.40
2022-10-01T09:00:56.754Z,21.27
2022-10-01T09:03:26.300Z,30.55
2022-10-01T09:05:59.764Z,19.73
2022-10-01T09:08:45.134Z,18.40
2022-10-01T09:11:15.013Z,16.62
2022-10-01T09:14:07.353Z,18.75
2022-10-01T09:16:38.723Z,16.33
2022-10-01T09:19:25.254Z,19.45
2022-10-01T09:22:06.304Z,28.17
2022-10-01T09:24:43.129Z,26.37
2022-10-01T09:27:14.854Z,26.80
2022-10-01T09:29:52.659Z,25.33
2022-10-01T09:32:23.486Z,20.62
2022-10-01T09:34:51.808Z,20.65
2022-10-01T09:37:24.031Z,19.00
2022-10-01T09:40:00.700Z,15.93
2022-10-01T09:42:29.338Z,20.42
2022-10-01T09:44:57.825Z,26.48
2022-10-01T09:47:28.209Z,21.30
2022-10-01T09:49:58.740Z,20.95
2022-10-01T09:52:37.951Z,15.90
2022-10-01T09:55:16.132Z,20.42
2022-10-01T09:57:51.993Z,25.17
2022-10-01T10:00:24.905Z,18.33
2022-10-01T10:02:54.554Z,25.92
2022-10-01T10:05:29.798Z,24.73
2022-10-01T10:08:10.336Z,16.52
2022-10-01T10:10:40.155Z,21.62
2022-10-01T10:13:14.704Z,19.83
2022-10-01T10:15:53.354Z,16.73
2022-10-01T10:18:31.010Z,20.83
2022-10-01T10:20:59.351Z,19.33
2022-10-01T10:23:29.009Z,11.48
2022-10-01T10:26:05.562Z,17.08
2022-10-01T10:28:43.797Z,12.25
2022-10-01T10:31:21.941Z,14.63
2022-10-01T10:33:58.359Z,13.25
2022-10-01T10:36:29.992Z,13.30
2022-10-01T10:38:58.492Z,16.52
2022-10-01T10:41:26.648Z,14.77
2022-10-01T10:44:06.210Z,13.70
2022-10-01T10:46:36.303Z,10.45
2022-10-01T10:49:31.326Z,13.13
2022-10-01T10:52:01.271Z,9.10
2022-10-01T10:54:34.071Z,11.40
2022-10-01T10:57:21.331Z,8.18
2022-10-01T11:00:16.095Z,10.38
2022-10-01T11:03:02.116Z,10.37
2022-10-01T11:05:32.820Z,10.15
2022-10-01T11:08:05.527Z,8.35
2022-10-01T11:10:57.320Z,10.20
2022-10-01T11:13:27.861Z,8.98
2022-10-01T11:16:14.305Z,7.50
2022-10-01T11:18:48.435Z,8.93
2022-10-01T11:21:15.832Z,6.90
2022-10-01T11:24:09.376Z,8.18
2022-10-01T11:26:58.365Z,8.52
2022-10-01T11:30:01.583Z,8.00
2022-10-01T11:32:39.353Z,6.37
2022-10-01T11:35:33.146Z,6.97
2022-10-01T11:38:05.206Z,8.25
2022-10-01T11:40:41.124Z,6.60
2022-10-01T11:43:30.438Z,14.50
2022-10-01T11:46:08.169Z,7.57
2022-10-01T11:48:48.550Z,4.65
2022-10-01T11:51:25.496Z,8.32
2022-10-01T11:53:58.339Z,6.90
2022-10-01T11:56:54.023Z,7.80
2022-10-01T11:59:29.581Z,8.30
2022-10-01T12:02:26.798Z,7.78
2022-10-01T12:05:05.004Z,7.12
2022-10-01T12:07:49.633Z,5.80
2022-10-01T12:10:39.342Z,7.03
2022-10-01T12:13:16.698Z,6.85
2022-10-01T12:15:53.709Z,5.78
2022-10-01T12:18:28.740Z,12.93
2022-10-01T12:20:58.739Z,5.32
2022-10-01T12:23:51.393Z,7.95
2022-10-01T12:26:32.359Z,7.30
2022-10-01T12:29:11.683Z,5.72
2022-10-01T12:31:55.688Z,9.90
2022-10-01T12:34:54.032Z,6.00
2022-10-01T12:37:28.072Z,6.62
2022-10-01T12:40:03.482Z,7.20
2022-10-01T12:42:37.170Z,6.53
2022-10-01T12:45:04.484Z,6.35
2022-10-01T12:48:03.389Z,5.22
2022-10-01T12:51:29.117Z,7.60
2022-10-01T12:54:41.772Z,7.60
2022-10-01T12:57:35.001Z,7.00
2022-10-01T13:00:18.269Z,10.18
2022-10-01T13:02:52.119Z,7.43
2022-10-01T13:05:26.008Z,9.48
2022-10-01T13:07:59.643Z,7.18
2022-10-01T13:10:36.252Z,7.40
2022-10-01T13:13:14.946Z,5.80
2022-10-01T13:15:47.740Z,6.65
2022-10-01T13:18:21.045Z,8.02
2022-10-01T13:20:57.221Z,6.70
2022-10-01T13:23:32.681Z,7.57
2022-10-01T13:26:36.605Z,4.40
2022-10-01T13:29:13.390Z,8.27
2022-10-01T13:31:58.666Z,5.93
2022-10-01T13:34:37.557Z,4.93
2022-10-01T13:37:30.038Z,7.07
2022-10-01T13:39:59.366Z,15.57
2022-10-01T13:42:30.257Z,8.63
2022-10-01T13:45:04.845Z,11.55
2022-10-01T13:47:33.984Z,11.93
2022-10-01T13:50:04.105Z,13.10
2022-10-01T13:52:32.806Z,14.45
2022-10-01T13:55:01.862Z,15.25
2022-10-01T13:57:32.472Z,12.37
2022-10-01T14:00:00.148Z,17.33
2022-10-01T14:02:36.712Z,18.42
2022-10-01T14:05:29.527Z,16.80
2022-10-01T14:08:10.928Z,23.17
2022-10-01T14:11:04.425Z,13.77
2022-10-01T14:13:54.328Z,16.52
2022-10-01T14:16:22.270Z,17.20
2022-10-01T14:18:49.977Z,13.43
2022-10-01T14:21:28.567Z,17.12
2022-10-01T14:24:20.883Z,13.88
2022-10-01T14:27:24.158Z,14.35
2022-10-01T14:30:11.023Z,18.45
2022-10-01T14:32:54.000Z,16.05
2022-10-01T14:35:31.684Z,16.80
2022-10-01T14:38:00.938Z,14.60
2022-10-01T14:40:39.652Z,14.85
2022-10-01T14:43:20.256Z,13.02
2022-10-01T14:45:51.897Z,19.45
2022-10-01T14:48:19.546Z,16.17
2022-10-01T14:50:49.523Z,13.45
2022-10-01T14:53:18.561Z,14.20
2022-10-01T14:55:47.619Z,14.70
2022-10-01T14:58:28.182Z,12.63
2022-10-01T15:00:56.884Z,14.63
2022-10-01T15:03:24.770Z,20.67
2022-10-01T15:06:03.294Z,16.58
2022-10-01T15:08:54.778Z,18.37
2022-10-01T15:11:29.837Z,21.55
2022-10-01T15:14:03.369Z,12.45
2022-10-01T15:16:33.220Z,15.02
2022-10-01T15:19:08.076Z,14.82
2022-10-01T15:21:37.257Z,16.92
2022-10-01T15:24:13.655Z,12.35
2022-10-01T15:26:41.174Z,6.90
2022-10-01T15:29:15.351Z,7.47
2022-10-01T15:31:43.988Z,8.07
2022-10-01T15:34:13.591Z,7.22
2022-10-01T15:36:41.295Z,5.82
2022-10-01T15:39:38.990Z,12.13
2022-10-01T15:42:23.494Z,7.10
2022-10-01T15:45:20.304Z,4.75
2022-10-01T15:47:51.741Z,6.25
2022-10-01T15:50:23.431Z,6.40
2022-10-01T15:53:13.807Z,5.97
2022-10-01T15:55:53.483Z,7.30
2022-10-01T15:58:57.480Z,6.60
2022-10-01T16:01:27.548Z,20.15
2022-10-01T16:04:12.782Z,7.55
2022-10-01T16:06:45.497Z,10.05
2022-10-01T16:09:17.612Z,10.20
2022-10-01T16:12:05.340Z,7.22
2022-10-01T16:14:43.956Z,5.85
2022-10-01T16:17:17.681Z,7.12
2022-10-01T16:19:47.104Z,9.27
2022-10-01T16:22:25.541Z,7.47
2022-10-01T16:25:06.982Z,6.32
2022-10-01T16:27:43.388Z,7.65
2022-10-01T16:30:19.399Z,6.82
2022-10-01T16:32:47.291Z,5.97
2022-10-01T16:35:29.753Z,6.35
2022-10-01T16:37:58.044Z,6.37
2022-10-01T16:40:28.581Z,6.97
2022-10-01T16:42:58.113Z,3.95
2022-10-01T16:45:28.534Z,4.35
2022-10-01T16:47:59.507Z,4.87
2022-10-01T16:50:27.340Z,5.05
2022-10-01T16:52:55.760Z,6.93
2022-10-01T16:55:32.352Z,4.97
2022-10-01T16:58:02.056Z,3.75
2022-10-01T17:00:29.904Z,3.12
2022-10-01T17:02:58.267Z,3.50
2022-10-01T17:05:31.770Z,3.00
2022-10-01T17:08:03.634Z,3.83
2022-10-01T17:10:35.869Z,4.47
2022-10-01T17:13:03.779Z,4.15
2022-10-01T17:15:32.219Z,5.85
2022-10-01T17:17:59.812Z,2.47
2022-10-01T17:20:29.145Z,2.90
2022-10-01T17:22:58.045Z,4.75
2022-10-01T17:25:32.373Z,3.65
2022-10-01T17:28:02.490Z,2.47
2022-10-01T17:30:30.803Z,3.25
2022-10-01T17:33:02.526Z,4.43
2022-10-01T17:35:30.320Z,3.75
2022-10-01T17:37:58.483Z,5.78
2022-10-01T17:40:25.966Z,7.60
2022-10-01T17:42:53.869Z,3.72
2022-10-01T17:45:21.348Z,7.75
2022-10-01T17:47:50.399Z,4.97
2022-10-01T17:50:18.838Z,6.85
2022-10-01T17:52:49.627Z,3.60
2022-10-01T17:55:19.759Z,10.63
2022-10-01T17:57:47.489Z,28.85
2022-10-01T18:00:15.083Z,9.07
2022-10-01T18:02:43.550Z,17.75
2022-10-01T18:05:14.519Z,5.43
2022-10-01T18:07:42.523Z,6.20
2022-10-01T18:10:12.599Z,2.42
2022-10-01T18:12:40.157Z,3.10
2022-10-01T18:15:08.093Z,4.70
2022-10-01T18:17:36.757Z,4.62
2022-10-01T18:20:08.004Z,3.87
2022-10-01T18:22:37.927Z,6.03
2022-10-01T18:25:06.152Z,4.07
2022-10-01T18:27:33.732Z,6.97
2022-10-01T18:30:01.576Z,3.62
2022-10-01T18:32:36.784Z,4.15
2022-10-01T18:35:18.826Z,4.30
2022-10-01T18:38:09.392Z,3.00
2022-10-01T18:40:42.959Z,25.25
2022-10-01T18:43:17.977Z,5.10
2022-10-01T18:45:59.957Z,4.55
2022-10-01T18:48:58.505Z,7.20
2022-10-01T18:51:52.195Z,6.75
2022-10-01T18:54:43.339Z,3.10
2022-10-01T18:57:20.685Z,2.95
2022-10-01T19:00:06.841Z,3.55
2022-10-01T19:03:00.834Z,2.85
2022-10-01T19:05:48.589Z,4.00
2022-10-01T19:08:49.520Z,5.30
2022-10-01T19:11:24.466Z,3.85
2022-10-01T19:14:11.106Z,5.85
2022-10-01T19:16:58.796Z,6.15
2022-10-01T19:19:52.828Z,5.00
2022-10-01T19:22:41.790Z,5.12
2022-10-01T19:25:32.276Z,4.32
2022-10-01T19:28:18.592Z,4.57
2022-10-01T19:30:51.863Z,2.05
2022-10-01T19:33:21.148Z,9.48
2022-10-01T19:35:52.001Z,15.05
2022-10-01T19:38:24.294Z,6.75
2022-10-01T19:40:55.572Z,45.70
2022-10-01T19:43:29.926Z,13.10
2022-10-01T19:46:07.338Z,3.67
2022-10-01T19:48:58.086Z,5.28
2022-10-01T19:51:32.281Z,5.03
2022-10-01T19:54:01.499Z,6.22
2022-10-01T19:56:31.660Z,4.12
2022-10-01T19:59:06.906Z,8.55
2022-10-01T20:01:38.985Z,6.47
2022-10-01T20:04:14.766Z,5.70
2022-10-01T20:09:42.426Z,4.10
2022-10-01T20:12:15.846Z,7.78
2022-10-01T20:15:09.954Z,5.80
2022-10-01T20:17:47.815Z,4.68
2022-10-01T20:20:24.047Z,4.55
2022-10-01T20:23:24.023Z,3.35
2022-10-01T20:25:57.839Z,3.87
2022-10-01T20:28:36.393Z,3.70
2022-10-01T20:31:10.802Z,5.68
2022-10-01T20:33:47.408Z,3.20
2022-10-01T20:36:42.731Z,3.65
2022-10-01T20:39:21.815Z,2.67
2022-10-01T20:41:53.264Z,3.20
2022-10-01T20:44:25.087Z,2.17
2022-10-01T20:47:01.123Z,4.22
2022-10-01T20:49:39.319Z,8.50
2022-10-01T20:52:29.702Z,4.62
2022-10-01T20:55:18.988Z,4.82
2022-10-01T20:57:51.912Z,5.47
2022-10-01T21:00:26.403Z,4.18
2022-10-01T21:03:12.666Z,3.60
2022-10-01T21:05:55.382Z,6.65
2022-10-01T21:08:27.139Z,4.22
2022-10-01T21:10:57.923Z,3.72
2022-10-01T21:13:31.525Z,4.53
2022-10-01T21:16:23.912Z,2.65
2022-10-01T21:19:01.697Z,4.20
2022-10-01T21:21:41.256Z,3.78
2022-10-01T21:24:47.761Z,3.30
2022-10-01T21:27:45.404Z,3.53
2022-10-01T21:30:21.921Z,1.87
2022-10-01T21:33:14.836Z,1.85
2022-10-01T21:36:19.476Z,3.42
2022-10-01T21:39:11.668Z,1.30
2022-10-01T21:41:50.530Z,2.65
2022-10-01T21:44:39.709Z,4.18
2022-10-01T21:47:32.303Z,1.75
2022-10-01T21:50:05.888Z,5.00
2022-10-01T21:52:39.558Z,4.07
2022-10-01T21:55:20.014Z,6.15
2022-10-01T21:58:18.818Z,2.85
2022-10-01T22:01:08.613Z,3.95
2022-10-01T22:03:45.067Z,4.43
2022-10-01T22:06:27.772Z,4.85
2022-10-01T22:09:27.757Z,2.60
2022-10-01T22:11:59.191Z,2.67
2022-10-01T22:14:27.476Z,3.42
2022-10-01T22:17:12.103Z,4.10
2022-10-01T22:19:44.745Z,7.47
2022-10-01T22:22:25.610Z,4.60
2022-10-01T22:24:54.476Z,2.10
2022-10-01T22:27:33.480Z,2.20
2022-10-01T22:30:09.184Z,3.50
2022-10-01T22:32:47.446Z,2.05
2022-10-01T22:35:25.487Z,3.15
2022-10-01T22:38:12.978Z,3.90
2022-10-01T22:40:48.708Z,3.83
2022-10-01T22:43:16.257Z,2.75
2022-10-01T22:46:15.161Z,2.62
2022-10-01T22:48:50.886Z,3.72
2022-10-01T22:51:48.443Z,1.67
2022-10-01T22:54:32.857Z,2.45
2022-10-01T22:57:19.003Z,1.58
2022-10-01T23:00:05.216Z,2.85
2022-10-01T23:02:39.599Z,2.33
2022-10-01T23:05:16.025Z,2.72
2022-10-01T23:07:57.747Z,3.47
2022-10-01T23:10:42.751Z,2.08
2022-10-01T23:13:23.030Z,2.42
2022-10-01T23:16:06.195Z,2.10
2022-10-01T23:18:57.121Z,1.27
2022-10-01T23:21:34.419Z,2.08
2022-10-01T23:24:14.354Z,3.30
2022-10-01T23:27:19.904Z,1.80
2022-10-01T23:29:53.638Z,1.95
2022-10-01T23:32:45.946Z,0.80
2022-10-01T23:35:21.772Z,2.08
2022-10-01T23:38:24.483Z,1.65
2022-10-01T23:40:52.269Z,1.27
2022-10-01T23:43:26.046Z,2.15
2022-10-01T23:45:57.440Z,1.12
2022-10-01T23:48:35.164Z,1.42
2022-10-01T23:51:27.060Z,2.67
2022-10-01T23:54:13.073Z,1.35
2022-10-01T23:56:58.983Z,1.45
2022-10-01T23:59:39.269Z,1.58
